Time;durP1;ratioP1;P1;durP2;ratioP2;P2;SDS_P1;SDS_P2;PMS_P1;PMS_P2;Temp;Humidity;BMP_temperature;BMP_pressure;BME280_temperature;BME280_humidity;BME280_pressure;Samples;Min_cycle;Max_cycle;Signal;HPM_P1;HPM_P2
2023/06/05 00:00:43;;;;;;;4.30;1.35;;;;;;;16.90;100.00;101077.88;4983070;28;20119;-78
2023/06/05 00:03:09;;;;;;;4.97;1.40;;;;;;;16.66;100.00;101054.31;4987768;28;20046;-76
2023/06/05 00:05:36;;;;;;;1.73;0.80;;;;;;;16.78;100.00;101070.94;4971419;28;20078;-75
2023/06/05 00:08:01;;;;;;;3.28;0.82;;;;;;;16.81;100.00;101068.28;4981108;28;20049;-74
2023/06/05 00:10:27;;;;;;;5.75;1.13;;;;;;;16.61;100.00;101050.00;4975621;28;20042;-75
2023/06/05 00:12:53;;;;;;;2.30;1.15;;;;;;;16.84;100.00;101069.13;4984303;28;20066;-76
2023/06/05 00:15:18;;;;;;;7.45;1.17;;;;;;;16.80;100.00;101062.09;4984791;28;20042;-74
2023/06/05 00:17:45;;;;;;;2.25;1.13;;;;;;;16.38;100.00;100987.63;4962751;28;20078;-76
2023/06/05 00:20:11;;;;;;;2.92;0.85;;;;;;;16.88;100.00;101073.47;4973178;28;20788;-73
2023/06/05 00:22:37;;;;;;;2.13;1.33;;;;;;;16.49;100.00;101027.22;4983888;28;20045;-75
2023/06/05 00:25:03;;;;;;;3.63;0.60;;;;;;;16.68;100.00;101079.03;4984024;28;20708;-76
2023/06/05 00:27:28;;;;;;;5.18;1.48;;;;;;;16.45;100.00;101030.81;4979830;28;20049;-73
2023/06/05 00:29:54;;;;;;;2.00;0.80;;;;;;;16.04;100.00;100955.47;4981503;28;20600;-76
2023/06/05 00:32:19;;;;;;;6.57;1.50;;;;;;;16.12;100.00;100980.06;4998931;28;20453;-73
2023/06/05 00:34:46;;;;;;;2.35;1.10;;;;;;;16.70;100.00;101075.50;4978505;28;20058;-73
2023/06/05 00:37:15;;;;;;;3.13;1.33;;;;;;;16.66;100.00;101064.94;4983779;28;20058;-74
2023/06/05 00:39:41;;;;;;;3.72;0.95;;;;;;;16.71;100.00;101066.66;4981853;28;20045;-76
2023/06/05 00:42:08;;;;;;;1.98;0.93;;;;;;;16.74;100.00;101078.09;4984125;28;20121;-77
2023/06/05 00:44:34;;;;;;;3.83;0.88;;;;;;;16.56;100.00;101031.53;4981339;28;20047;-76
2023/06/05 00:47:03;;;;;;;3.28;1.42;;;;;;;16.10;100.00;100963.31;4977306;28;20118;-73
2023/06/05 00:49:29;;;;;;;3.15;1.42;;;;;;;16.23;100.00;100983.44;4979254;28;20057;-75
2023/06/05 00:51:56;;;;;;;4.68;1.25;;;;;;;16.08;100.00;100951.88;4976192;28;20051;-74
2023/06/05 00:54:22;;;;;;;7.53;0.82;;;;;;;16.70;100.00;101057.81;4985980;28;20030;-73
2023/06/05 00:56:47;;;;;;;1.08;0.75;;;;;;;16.04;100.00;100963.41;4985506;28;20398;-74
2023/06/05 00:59:13;;;;;;;1.90;0.77;;;;;;;16.54;100.00;101053.66;4985980;28;20047;-79
2023/06/05 01:01:40;;;;;;;2.70;1.15;;;;;;;15.72;100.00;100925.00;4979178;28;20042;-73
2023/06/05 01:04:06;;;;;;;2.58;1.02;;;;;;;16.54;100.00;101070.41;4982442;28;20061;-76
2023/06/05 01:06:33;;;;;;;0.88;0.52;;;;;;;15.94;100.00;100975.00;4977953;28;20079;-77
2023/06/05 01:09:00;;;;;;;2.58;1.33;;;;;;;16.11;100.00;101001.25;4981248;28;20038;-76
2023/06/05 01:11:31;;;;;;;2.17;1.60;;;;;;;16.49;100.00;101069.59;4973906;28;20097;-74
2023/06/05 01:14:22;;;;;;;1.92;0.90;;;;;;;16.43;100.00;101069.69;4982529;28;20046;-75
2023/06/05 01:16:53;;;;;;;1.92;0.90;;;;;;;16.15;100.00;101006.47;4973407;28;20500;-74
2023/06/05 01:19:28;;;;;;;2.42;0.80;;;;;;;16.10;100.00;100976.56;4979902;28;20070;-75
2023/06/05 01:21:58;;;;;;;3.90;1.70;;;;;;;15.85;100.00;100946.91;4983056;28;20046;-78
2023/06/05 01:24:25;;;;;;;2.03;1.10;;;;;;;16.06;100.00;100966.94;4985258;28;20424;-83
2023/06/05 01:27:15;;;;;;;4.65;1.70;;;;;;;16.03;100.00;100973.09;4980778;28;20038;-74
2023/06/05 01:30:14;;;;;;;2.95;0.73;;;;;;;16.51;100.00;101072.25;4978759;28;20605;-76
2023/06/05 01:33:20;;;;;;;2.53;1.27;;;;;;;16.59;100.00;101060.63;4974948;28;20410;-73
2023/06/05 01:35:51;;;;;;;2.80;1.30;;;;;;;16.60;100.00;101080.03;4981491;28;20063;-75
2023/06/05 01:38:18;;;;;;;1.60;0.90;;;;;;;16.62;100.00;101072.94;4974107;28;20112;-75
2023/06/05 01:40:45;;;;;;;3.15;1.15;;;;;;;16.55;100.00;101064.22;4980977;28;20881;-76
2023/06/05 01:43:12;;;;;;;3.03;0.88;;;;;;;15.84;100.00;100958.38;4981625;28;20070;-74
2023/06/05 01:45:40;;;;;;;1.40;0.80;;;;;;;16.15;100.00;100984.44;4984270;28;20077;-78
2023/06/05 01:48:10;;;;;;;2.30;0.85;;;;;;;16.65;100.00;101075.56;4980495;28;20042;-74
2023/06/05 01:50:37;;;;;;;7.13;1.77;;;;;;;16.72;100.00;101081.66;4975488;28;20125;-74
2023/06/05 01:53:04;;;;;;;4.28;1.10;;;;;;;16.56;100.00;101060.66;4979711;28;20050;-74
2023/06/05 01:55:30;;;;;;;3.88;1.98;;;;;;;16.70;100.00;101086.09;4981743;28;20441;-75
2023/06/05 01:57:56;;;;;;;1.25;0.75;;;;;;;16.06;100.00;100968.66;4982739;28;20047;-79
2023/06/05 02:00:21;;;;;;;2.67;2.17;;;;;;;16.71;100.00;101062.22;4978503;28;20049;-75
2023/06/05 02:02:48;;;;;;;2.72;1.05;;;;;;;16.22;100.00;100986.09;4979840;28;20058;-75
2023/06/05 02:05:16;;;;;;;2.95;1.23;;;;;;;16.68;100.00;101091.41;4976341;28;20042;-75
2023/06/05 02:08:05;;;;;;;1.63;0.75;;;;;;;16.60;100.00;101067.69;4983236;28;20043;-74
2023/06/05 02:10:31;;;;;;;1.20;0.65;;;;;;;16.19;100.00;100996.75;4970140;28;20074;-74
2023/06/05 02:12:57;;;;;;;1.13;0.60;;;;;;;16.14;100.00;100975.63;5009017;28;20074;-74
2023/06/05 02:15:22;;;;;;;2.60;1.23;;;;;;;16.32;100.00;101016.88;4978737;28;20503;-75
2023/06/05 02:17:56;;;;;;;4.28;0.68;;;;;;;16.75;100.00;101093.06;4983948;28;20061;-76
2023/06/05 02:20:25;;;;;;;1.70;0.60;;;;;;;16.72;100.00;101098.44;4982169;28;20839;-75
2023/06/05 02:22:51;;;;;;;2.75;1.05;;;;;;;16.73;100.00;101088.69;4984747;28;20076;-74
2023/06/05 02:25:18;;;;;;;2.70;1.55;;;;;;;16.09;100.00;100996.00;4986031;28;20077;-75
2023/06/05 02:27:44;;;;;;;2.30;1.25;;;;;;;16.72;100.00;101093.13;4985784;28;20652;-75
2023/06/05 02:30:11;;;;;;;3.78;1.08;;;;;;;16.25;100.00;101020.50;4989978;28;20109;-78
2023/06/05 02:32:41;;;;;;;7.88;1.45;;;;;;;16.05;100.00;100973.09;4984238;28;20074;-76
2023/06/05 02:35:08;;;;;;;2.72;1.00;;;;;;;15.88;100.00;100961.88;4987328;28;20046;-75
2023/06/05 02:37:36;;;;;;;2.65;1.00;;;;;;;16.53;100.00;101071.31;4985723;28;20158;-76
2023/06/05 02:40:05;;;;;;;1.95;0.95;;;;;;;15.94;100.00;100973.22;4984306;28;20525;-75
2023/06/05 02:42:30;;;;;;;3.28;1.45;;;;;;;16.39;100.00;101062.69;4981431;28;20027;-76
2023/06/05 02:44:56;;;;;;;4.00;1.20;;;;;;;15.68;100.00;100968.25;4970129;28;20046;-76
2023/06/05 02:47:21;;;;;;;2.28;0.95;;;;;;;16.41;100.00;101066.16;4977608;28;20086;-74
2023/06/05 02:49:46;;;;;;;4.93;1.63;;;;;;;15.91;100.00;100957.41;4987552;28;20038;-74
2023/06/05 02:52:12;;;;;;;2.60;1.17;;;;;;;16.74;100.00;101090.44;4983933;28;20708;-76
2023/06/05 02:54:37;;;;;;;3.47;1.30;;;;;;;15.94;100.00;100967.06;4982068;28;20379;-75
2023/06/05 02:57:06;;;;;;;4.13;1.30;;;;;;;15.70;100.00;100924.16;4981908;28;20528;-76
2023/06/05 02:59:32;;;;;;;2.10;1.00;;;;;;;16.09;100.00;101017.19;4985674;28;20051;-76
2023/06/05 03:01:57;;;;;;;6.05;1.35;;;;;;;16.00;100.00;100981.09;4983654;28;20066;-75
2023/06/05 03:04:24;;;;;;;6.63;1.65;;;;;;;16.67;100.00;101084.38;4983727;28;20050;-75
2023/06/05 03:06:50;;;;;;;2.53;1.55;;;;;;;16.64;100.00;101087.91;5013770;28;20050;-76
2023/06/05 03:09:16;;;;;;;2.13;0.98;;;;;;;16.51;100.00;101054.56;4981552;28;20046;-76
2023/06/05 03:11:43;;;;;;;3.28;1.50;;;;;;;16.54;100.00;101065.13;4984397;28;20081;-73
2023/06/05 03:14:08;;;;;;;2.90;1.33;;;;;;;16.63;100.00;101082.66;4986060;28;20085;-75
2023/06/05 03:16:41;;;;;;;2.85;1.20;;;;;;;16.22;100.00;100996.69;4975213;28;20346;-75
2023/06/05 03:19:08;;;;;;;2.83;1.15;;;;;;;16.56;100.00;101070.41;4979309;28;20061;-76
2023/06/05 03:21:35;;;;;;;2.38;1.00;;;;;;;16.09;100.00;100987.19;4975807;28;20066;-78
2023/06/05 03:24:02;;;;;;;2.13;1.00;;;;;;;16.59;100.00;101059.75;4981419;28;20037;-76
2023/06/05 03:26:28;;;;;;;3.75;1.63;;;;;;;16.02;100.00;100971.38;4986502;28;20085;-75
2023/06/05 03:28:54;;;;;;;3.42;1.55;;;;;;;16.10;100.00;100981.84;4979242;28;20059;-76
2023/06/05 03:31:19;;;;;;;4.63;1.63;;;;;;;16.66;100.00;101079.97;4978232;28;20069;-76
2023/06/05 03:33:45;;;;;;;5.72;1.13;;;;;;;16.51;100.00;101038.66;4966766;28;20071;-76
2023/06/05 03:36:10;;;;;;;5.25;2.22;;;;;;;16.23;100.00;100977.28;4983827;28;20134;-77
2023/06/05 03:38:36;;;;;;;4.82;1.63;;;;;;;16.36;100.00;101007.09;4981952;28;20077;-76
2023/06/05 03:41:01;;;;;;;2.78;1.08;;;;;;;16.40;100.00;101030.00;4979417;28;20047;-75
2023/06/05 03:43:27;;;;;;;2.63;1.35;;;;;;;16.19;100.00;100965.84;4979162;28;20066;-75
2023/06/05 03:45:53;;;;;;;2.05;1.02;;;;;;;16.76;100.00;101078.03;4978549;28;20134;-76
2023/06/05 03:48:21;;;;;;;3.03;1.35;;;;;;;16.29;100.00;101003.66;4965386;28;20035;-75
2023/06/05 03:50:47;;;;;;;3.13;1.15;;;;;;;16.95;100.00;101092.84;4964762;28;20050;-73
2023/06/05 03:53:13;;;;;;;2.83;1.63;;;;;;;16.77;100.00;101050.66;4971787;28;20732;-75
2023/06/05 03:55:44;;;;;;;3.42;1.42;;;;;;;16.50;100.00;101013.06;4980035;28;20046;-75
2023/06/05 03:58:13;;;;;;;3.17;1.00;;;;;;;16.83;100.00;101085.94;4980080;28;20613;-76
2023/06/05 04:00:43;;;;;;;3.80;1.45;;;;;;;16.91;100.00;101098.19;4979533;28;20042;-75
2023/06/05 04:03:13;;;;;;;3.03;1.15;;;;;;;16.31;100.00;100985.09;4981809;28;20035;-75
2023/06/05 04:05:39;;;;;;;5.22;2.95;;;;;;;16.62;100.00;101033.19;4977595;28;20089;-75
2023/06/05 04:08:05;;;;;;;3.28;1.45;;;;;;;16.45;100.00;100996.38;4978470;28;20057;-78
2023/06/05 04:10:31;;;;;;;2.53;1.40;;;;;;;17.09;100.00;101103.19;4982112;28;20450;-74
2023/06/05 04:12:57;;;;;;;3.50;1.90;;;;;;;17.15;100.00;101105.75;4980132;28;20054;-73
2023/06/05 04:15:26;;;;;;;2.55;1.23;;;;;;;16.35;100.00;100962.97;5001409;28;20037;-73
2023/06/05 04:17:52;;;;;;;3.10;1.60;;;;;;;17.08;100.00;101086.41;4981548;28;20050;-74
2023/06/05 04:20:17;;;;;;;3.35;1.45;;;;;;;17.05;100.00;101081.16;4984117;28;20074;-74
2023/06/05 04:22:43;;;;;;;2.55;1.35;;;;;;;16.59;100.00;100983.78;4977591;28;20085;-73
2023/06/05 04:25:12;;;;;;;3.22;1.52;;;;;;;17.23;100.00;101081.75;4982396;28;20062;-74
2023/06/05 04:27:43;;;;;;;3.20;2.00;;;;;;;16.75;100.00;100996.81;4984002;28;20038;-74
2023/06/05 04:30:11;;;;;;;4.45;1.58;;;;;;;17.44;100.00;101104.38;4980944;28;20409;-77
2023/06/05 04:32:38;;;;;;;3.00;1.67;;;;;;;17.33;100.00;101080.72;4995009;28;20112;-76
2023/06/05 04:35:08;;;;;;;4.05;1.80;;;;;;;16.86;100.00;100997.53;4975920;28;20062;-75
2023/06/05 04:37:35;;;;;;;4.32;1.63;;;;;;;17.00;100.00;101010.56;4981522;28;20213;-74
2023/06/05 04:40:05;;;;;;;4.05;1.25;;;;;;;17.32;100.00;101072.78;4982382;28;20061;-75
2023/06/05 04:42:33;;;;;;;2.53;1.38;;;;;;;17.44;100.00;101062.84;4984872;28;20038;-75
2023/06/05 04:45:02;;;;;;;4.40;2.28;;;;;;;16.95;100.00;100980.59;4987149;28;20042;-74
2023/06/05 04:47:28;;;;;;;3.17;1.20;;;;;;;17.59;100.00;101079.38;4978866;28;20414;-74
2023/06/05 04:49:54;;;;;;;3.17;1.70;;;;;;;17.75;100.00;101094.13;4973106;28;20074;-75
2023/06/05 04:52:21;;;;;;;3.78;2.63;;;;;;;17.88;100.00;101119.53;4976542;28;20154;-74
2023/06/05 04:54:48;;;;;;;7.78;4.70;;;;;;;17.80;100.00;101092.25;4978462;28;20042;-75
2023/06/05 04:57:16;;;;;;;2.83;1.42;;;;;;;18.01;100.00;101111.38;4978954;28;20306;-77
2023/06/05 04:59:42;;;;;;;10.63;1.67;;;;;;;17.60;100.00;101041.31;4978394;28;20073;-76
2023/06/05 05:02:08;;;;;;;6.20;1.90;;;;;;;17.75;100.00;101049.00;4978548;28;20046;-76
2023/06/05 05:04:34;;;;;;;2.58;1.38;;;;;;;17.86;100.00;101089.53;4977472;28;20406;-76
2023/06/05 05:07:01;;;;;;;3.25;1.35;;;;;;;18.26;100.00;101130.31;4978120;28;20050;-76
2023/06/05 05:09:32;;;;;;;2.85;1.63;;;;;;;18.04;100.00;101052.88;4983351;28;20042;-76
2023/06/05 05:11:58;;;;;;;3.72;1.35;;;;;;;18.12;100.00;101117.31;4974792;28;20116;-76
2023/06/05 05:14:28;;;;;;;2.83;1.42;;;;;;;18.41;100.00;101126.50;4974037;28;20081;-73
2023/06/05 05:16:55;;;;;;;3.28;1.17;;;;;;;18.46;100.00;101113.97;4980470;28;20046;-81
2023/06/05 05:19:22;;;;;;;4.20;2.20;;;;;;;18.66;100.00;101143.69;4978631;28;20508;-75
2023/06/05 05:21:48;;;;;;;3.22;1.70;;;;;;;18.24;100.00;101065.72;4979810;28;20042;-74
2023/06/05 05:24:14;;;;;;;4.88;1.90;;;;;;;18.92;100.00;101148.44;4986564;28;20042;-76
2023/06/05 05:26:40;;;;;;;2.47;1.33;;;;;;;18.94;100.00;101130.66;4978840;28;20062;-75
2023/06/05 05:29:09;;;;;;;3.72;1.58;;;;;;;18.74;100.00;101140.84;4974535;28;20508;-76
2023/06/05 05:31:34;;;;;;;3.30;1.58;;;;;;;18.78;100.00;101129.28;4977308;28;20050;-77
2023/06/05 05:34:00;;;;;;;2.90;1.98;;;;;;;19.13;100.00;101138.22;4980501;28;20051;-75
2023/06/05 05:36:26;;;;;;;1.55;1.27;;;;;;;18.56;100.00;101137.66;4980200;28;20037;-78
2023/06/05 05:38:52;;;;;;;2.67;1.20;;;;;;;18.20;100.00;101041.00;4979131;28;20510;-76
2023/06/05 05:41:17;;;;;;;3.15;1.73;;;;;;;18.64;100.00;101036.50;4979251;28;20174;-77
2023/06/05 05:43:43;;;;;;;4.22;0.93;;;;;;;19.37;100.00;101126.97;4976154;28;20597;-77
2023/06/05 05:46:08;;;;;;;2.63;1.80;;;;;;;18.71;100.00;101130.28;4981167;28;20142;-78
2023/06/05 05:48:37;;;;;;;4.55;1.48;;;;;;;19.56;100.00;101137.16;4972364;28;20062;-79
2023/06/05 05:51:05;;;;;;;2.58;1.50;;;;;;;19.70;100.00;101153.66;4980083;28;20038;-78
2023/06/05 05:53:30;;;;;;;2.40;1.17;;;;;;;19.60;100.00;101136.16;4984398;28;20212;-78
2023/06/05 05:55:56;;;;;;;1.90;1.00;;;;;;;19.11;100.00;101057.56;4979449;28;20487;-78
2023/06/05 05:58:21;;;;;;;3.38;1.50;;;;;;;19.32;100.00;101053.50;4978856;28;20538;-77
2023/06/05 06:00:47;;;;;;;3.15;1.05;;;;;;;19.58;100.00;101072.28;4983739;28;20046;-77
2023/06/05 06:03:14;;;;;;;4.43;1.58;;;;;;;19.96;100.00;101160.09;4988300;28;20046;-76
2023/06/05 06:05:40;;;;;;;11.18;1.85;;;;;;;19.68;100.00;101056.97;4997117;28;20384;-78
2023/06/05 06:08:06;;;;;;;3.33;1.52;;;;;;;19.55;100.00;101053.75;4973089;28;20046;-78
2023/06/05 06:10:32;;;;;;;8.50;1.90;;;;;;;20.29;100.00;101141.44;4976372;28;20197;-78
2023/06/05 06:12:58;;;;;;;5.45;2.30;;;;;;;20.22;100.00;101138.06;4979624;28;20057;-76
2023/06/05 06:15:39;;;;;;;2.92;1.88;;;;;;;20.17;100.00;101092.88;4978871;28;20092;-76
2023/06/05 06:18:08;;;;;;;2.97;1.50;;;;;;;20.32;100.00;101122.66;4977843;28;20050;-75
2023/06/05 06:20:34;;;;;;;5.65;2.33;;;;;;;20.36;100.00;101140.34;4980530;28;20072;-78
2023/06/05 06:23:02;;;;;;;2.67;1.35;;;;;;;20.39;100.00;101133.13;4979935;28;20088;-77
2023/06/05 06:25:31;;;;;;;4.30;1.45;;;;;;;19.63;100.00;101061.53;4979809;28;20042;-76
2023/06/05 06:28:00;;;;;;;4.40;1.33;;;;;;;20.00;98.21;101181.28;4986389;28;20050;-77
2023/06/05 06:30:29;;;;;;;1.25;0.80;;;;;;;19.52;82.87;101202.03;4984913;28;20550;-79
2023/06/05 06:32:58;;;;;;;3.17;1.10;;;;;;;19.29;96.50;101170.63;4983178;28;20046;-76
2023/06/05 06:35:27;;;;;;;3.85;1.50;;;;;;;19.51;85.69;101128.41;4980253;28;20047;-77
2023/06/05 06:37:58;;;;;;;5.40;2.05;;;;;;;18.92;85.52;101065.13;4977234;28;20058;-77
2023/06/05 06:40:24;;;;;;;2.75;1.35;;;;;;;19.91;95.72;101159.34;4983049;28;20545;-79
2023/06/05 06:42:50;;;;;;;4.25;1.05;;;;;;;19.72;88.40;101040.00;4977231;28;20117;-78
2023/06/05 06:45:17;;;;;;;1.70;0.95;;;;;;;19.75;87.81;101055.88;4981041;28;20050;-76
2023/06/05 06:47:43;;;;;;;2.92;1.42;;;;;;;20.24;87.35;101078.47;4977364;28;20799;-76
2023/06/05 06:50:09;;;;;;;1.70;1.33;;;;;;;19.58;71.96;101004.88;4984862;28;20093;-77
2023/06/05 06:52:34;;;;;;;3.88;1.02;;;;;;;20.23;76.01;101087.38;4982678;28;20077;-76
2023/06/05 06:55:00;;;;;;;1.50;0.95;;;;;;;20.65;76.34;101110.19;4986127;28;20057;-77
2023/06/05 06:57:25;;;;;;;2.30;1.23;;;;;;;20.33;71.31;101180.41;4983761;28;20163;-76
2023/06/05 06:59:53;;;;;;;3.60;1.10;;;;;;;20.80;77.65;101160.38;5002822;28;20047;-78
2023/06/05 07:02:19;;;;;;;3.17;1.20;;;;;;;20.76;74.65;101069.81;4977808;28;20057;-78
2023/06/05 07:04:46;;;;;;;2.72;0.90;;;;;;;21.44;70.62;101157.47;4986313;28;20426;-77
2023/06/05 07:07:14;;;;;;;2.78;0.93;;;;;;;20.66;62.80;101018.56;4982834;28;20166;-77
2023/06/05 07:09:44;;;;;;;1.30;0.75;;;;;;;19.86;58.70;100898.47;4983184;28;20561;-80
2023/06/05 07:12:15;;;;;;;1.95;0.85;;;;;;;20.69;60.18;101057.59;4978127;28;20089;-78
2023/06/05 07:14:41;;;;;;;1.48;1.25;;;;;;;21.22;59.67;101173.31;4983857;28;20486;-77
2023/06/05 07:17:07;;;;;;;1.17;0.73;;;;;;;21.89;60.20;101163.97;4982140;28;20056;-76
2023/06/05 07:19:34;;;;;;;2.72;1.17;;;;;;;21.47;58.17;101127.16;4979940;28;20556;-77
2023/06/05 07:22:04;;;;;;;1.63;1.08;;;;;;;21.76;60.38;101087.88;4978528;28;20149;-76
2023/06/05 07:24:30;;;;;;;1.13;0.88;;;;;;;20.81;56.61;101087.44;4984334;28;20129;-77
2023/06/05 07:26:59;;;;;;;0.95;0.47;;;;;;;20.93;54.20;101118.19;4984078;28;20118;-75
2023/06/05 07:29:25;;;;;;;4.88;1.35;;;;;;;21.23;52.27;101059.38;4977906;28;20047;-75
2023/06/05 07:31:56;;;;;;;3.95;1.10;;;;;;;21.80;50.01;101167.00;4974145;28;20054;-76
2023/06/05 07:34:23;;;;;;;3.95;1.63;;;;;;;21.17;49.38;101063.16;4974926;28;20419;-75
2023/06/05 07:36:51;;;;;;;2.50;1.13;;;;;;;22.17;51.31;101165.66;4980325;28;20050;-75
2023/06/05 07:39:24;;;;;;;1.38;0.70;;;;;;;21.94;51.78;101105.91;4973391;28;20490;-77
2023/06/05 07:41:50;;;;;;;2.13;0.88;;;;;;;22.80;53.47;101180.25;4983078;28;20479;-76
2023/06/05 07:44:18;;;;;;;3.45;1.02;;;;;;;22.90;56.67;101183.50;4983587;28;20059;-76
2023/06/05 07:46:45;;;;;;;2.00;0.98;;;;;;;22.17;55.95;101070.28;4977707;28;20050;-76
2023/06/05 07:49:10;;;;;;;2.42;0.80;;;;;;;22.87;54.36;101100.63;4980686;28;20058;-78
2023/06/05 07:51:36;;;;;;;2.25;1.00;;;;;;;22.57;54.44;101087.53;4972277;28;20047;-76
2023/06/05 07:54:06;;;;;;;1.95;1.20;;;;;;;22.67;55.06;101075.53;4978713;28;20030;-77
2023/06/05 07:56:33;;;;;;;1.75;1.05;;;;;;;23.14;55.06;101142.38;4984115;28;20153;-79
2023/06/05 07:58:59;;;;;;;2.60;1.60;;;;;;;22.13;51.42;101149.75;4986174;28;20050;-78
2023/06/05 08:01:25;;;;;;;2.58;0.68;;;;;;;22.43;51.90;101179.00;4984382;28;20070;-77
2023/06/05 08:03:51;;;;;;;3.05;2.05;;;;;;;22.88;55.43;101105.06;4985536;28;20172;-76
2023/06/05 08:06:17;;;;;;;3.65;1.23;;;;;;;22.70;50.58;101095.94;4983846;28;20050;-75
2023/06/05 08:08:43;;;;;;;3.13;1.35;;;;;;;23.91;49.09;101176.69;4986475;28;20145;-77
2023/06/05 08:11:09;;;;;;;1.38;0.55;;;;;;;23.61;50.84;101109.19;4978870;28;20074;-76
2023/06/05 08:13:37;;;;;;;1.23;0.70;;;;;;;23.45;49.39;101142.91;4980302;28;20057;-76
2023/06/05 08:16:03;;;;;;;2.88;1.30;;;;;;;22.97;50.97;101140.34;4982393;28;20060;-76
2023/06/05 08:18:28;;;;;;;1.42;0.70;;;;;;;24.11;49.11;101166.91;4990771;28;20034;-76
2023/06/05 08:20:54;;;;;;;2.35;0.77;;;;;;;23.28;44.81;101007.03;4990260;28;20058;-77
2023/06/05 08:23:19;;;;;;;0.52;0.40;;;;;;;23.39;43.54;101165.47;4991083;28;20057;-75
2023/06/05 08:25:48;;;;;;;2.53;1.13;;;;;;;24.21;43.52;101173.63;4990575;28;20061;-75
2023/06/05 08:28:15;;;;;;;3.22;0.70;;;;;;;23.14;41.82;101138.84;4993419;28;20050;-75
2023/06/05 08:30:40;;;;;;;2.63;1.10;;;;;;;23.88;42.39;101071.41;4985995;28;20035;-76
2023/06/05 08:33:06;;;;;;;2.03;0.70;;;;;;;24.70;40.88;101138.28;4980349;28;20146;-75
2023/06/05 08:35:31;;;;;;;1.55;0.93;;;;;;;24.11;39.55;101087.31;4989686;28;20046;-78
2023/06/05 08:37:58;;;;;;;1.65;0.45;;;;;;;24.87;41.11;101132.16;4993806;28;20053;-76
2023/06/05 08:40:28;;;;;;;1.27;0.63;;;;;;;25.46;41.57;101149.84;4992972;28;20096;-77
2023/06/05 08:42:54;;;;;;;1.38;0.57;;;;;;;24.13;41.06;101151.63;4988747;28;20055;-78
2023/06/05 08:45:20;;;;;;;3.72;1.05;;;;;;;25.08;41.20;101149.91;4983836;28;20058;-72
2023/06/05 08:47:50;;;;;;;2.55;0.52;;;;;;;25.52;40.98;101057.25;4966545;28;20081;-73
2023/06/05 08:50:16;;;;;;;2.40;1.08;;;;;;;24.55;40.64;101060.25;4981180;28;20042;-73
2023/06/05 08:52:42;;;;;;;0.88;0.63;;;;;;;24.00;42.17;101057.47;4983190;28;20054;-72
2023/06/05 08:55:10;;;;;;;5.10;0.85;;;;;;;23.33;41.45;101056.78;4983103;28;20174;-72
2023/06/05 08:57:41;;;;;;;1.30;0.55;;;;;;;25.93;39.93;101145.69;4979867;28;20485;-72
2023/06/05 09:00:10;;;;;;;1.55;0.65;;;;;;;25.26;38.78;101134.69;4985193;28;20031;-72
2023/06/05 09:02:38;;;;;;;1.10;0.60;;;;;;;25.35;38.24;101136.06;4976724;28;20086;-72
2023/06/05 09:05:04;;;;;;;0.40;0.30;;;;;;;25.28;36.72;101122.91;4979378;28;20526;-72
2023/06/05 09:07:31;;;;;;;1.30;0.55;;;;;;;23.86;37.25;101036.66;4976097;28;20043;-72
2023/06/05 09:09:57;;;;;;;2.58;1.20;;;;;;;26.02;36.44;101053.75;4974646;28;20050;-75
2023/06/05 09:12:24;;;;;;;1.05;0.55;;;;;;;25.81;36.12;101144.47;4983054;28;20513;-74
2023/06/05 09:14:50;;;;;;;1.27;0.50;;;;;;;26.81;34.58;101137.31;4983848;28;20061;-73
2023/06/05 09:17:17;;;;;;;2.13;0.75;;;;;;;27.18;35.15;101148.66;4977999;28;20039;-73
2023/06/05 09:19:43;;;;;;;1.60;0.70;;;;;;;26.71;35.08;101058.00;4974181;28;20883;-63
2023/06/05 09:22:10;;;;;;;0.82;0.50;;;;;;;24.71;35.24;101059.53;4958549;28;20050;-65
2023/06/05 09:24:40;;;;;;;1.40;0.52;;;;;;;26.42;42.76;101146.59;4964312;28;20026;-65
2023/06/05 09:27:16;;;;;;;2.40;0.68;;;;;;;26.72;54.50;101125.22;4982203;28;20135;-65
2023/06/05 09:29:43;;;;;;;2.72;2.08;;;;;;;27.64;36.21;101151.38;4976257;28;20221;-65
2023/06/05 09:32:19;;;;;;;1.25;1.15;;;;;;;27.83;34.88;101145.78;4977788;28;20097;-65
2023/06/05 09:34:45;;;;;;;1.80;0.85;;;;;;;27.07;33.41;101148.44;4980145;28;20058;-65
2023/06/05 09:37:12;;;;;;;1.20;0.60;;;;;;;27.72;34.27;101148.22;4980466;28;20041;-65
2023/06/05 09:39:40;;;;;;;0.30;0.30;;;;;;;27.35;33.19;101062.34;4980820;28;20038;-65
2023/06/05 09:42:06;;;;;;;2.13;0.80;;;;;;;27.76;33.84;101088.59;4980796;28;20067;-65
2023/06/05 09:44:33;;;;;;;1.83;0.50;;;;;;;27.76;32.97;101066.16;4983250;28;20088;-65
2023/06/05 09:47:05;;;;;;;1.38;0.68;;;;;;;27.23;33.61;101102.63;4981523;28;20124;-64
2023/06/05 09:49:32;;;;;;;1.43;0.90;;;;;;;28.12;34.61;101052.25;4973337;28;20035;-65
2023/06/05 09:52:00;;;;;;;0.50;0.30;;;;;;;28.25;35.36;101129.75;4978349;28;20170;-63
2023/06/05 09:54:28;;;;;;;2.58;0.80;;;;;;;27.70;33.51;101124.06;4979836;28;20541;-66
2023/06/05 09:57:04;;;;;;;1.70;0.95;;;;;;;27.11;33.16;101044.91;4979542;28;20586;-66
2023/06/05 09:59:39;;;;;;;0.80;0.45;;;;;;;26.92;35.77;101058.56;4983643;28;20041;-65
2023/06/05 10:02:06;;;;;;;0.90;0.43;;;;;;;25.50;35.37;101089.63;4981363;28;20054;-66
2023/06/05 10:04:42;;;;;;;0.60;0.50;;;;;;;27.42;35.76;101143.72;4983725;28;20050;-65
2023/06/05 10:07:08;;;;;;;1.73;0.85;;;;;;;27.73;33.83;101021.38;4979675;28;20134;-66
2023/06/05 10:09:35;;;;;;;1.30;0.75;;;;;;;25.76;34.99;101045.22;4978414;28;20035;-66
2023/06/05 10:12:03;;;;;;;1.23;0.52;;;;;;;26.46;34.43;101039.66;4976031;28;20038;-74
2023/06/05 10:14:31;;;;;;;1.65;0.47;;;;;;;28.62;33.58;101102.16;4974023;28;20062;-74
2023/06/05 10:16:58;;;;;;;1.80;0.55;;;;;;;27.65;32.80;101049.78;4979023;28;20057;-75
2023/06/05 10:19:24;;;;;;;0.98;0.47;;;;;;;26.93;33.60;101011.84;5009258;28;20141;-75
2023/06/05 10:21:50;;;;;;;1.35;0.75;;;;;;;27.60;34.64;101093.19;4992358;28;20102;-75
2023/06/05 10:24:24;;;;;;;0.77;0.43;;;;;;;28.37;33.26;101023.69;4980428;28;20069;-75
2023/06/05 10:27:09;;;;;;;1.88;0.98;;;;;;;28.61;33.21;101105.84;4978415;28;20062;-74
2023/06/05 10:30:00;;;;;;;1.73;0.60;;;;;;;28.72;32.61;101097.03;4980202;28;20417;-77
2023/06/05 10:32:31;;;;;;;1.95;1.00;;;;;;;28.88;32.06;101104.13;4977434;28;20049;-77
2023/06/05 10:35:12;;;;;;;1.30;0.63;;;;;;;26.52;32.95;101045.53;4976133;28;20062;-77
2023/06/05 10:38:06;;;;;;;2.22;0.75;;;;;;;25.08;35.43;100881.34;4976469;28;20064;-75
2023/06/05 10:40:33;;;;;;;1.10;0.70;;;;;;;28.66;33.28;101053.34;4983074;28;20173;-77
2023/06/05 10:43:26;;;;;;;1.23;0.73;;;;;;;29.20;33.08;101081.25;4984081;28;20156;-76
2023/06/05 10:45:53;;;;;;;0.77;0.55;;;;;;;27.40;33.88;101064.75;4963898;28;20046;-71
2023/06/05 10:48:18;;;;;;;1.33;0.70;;;;;;;27.73;34.14;100991.72;4983781;28;20045;-71
2023/06/05 10:50:43;;;;;;;0.70;0.40;;;;;;;28.82;33.44;101076.56;4980939;28;20054;-72
2023/06/05 10:53:42;;;;;;;1.23;0.52;;;;;;;29.02;33.28;101077.91;4977151;28;20042;-72
2023/06/05 10:56:08;;;;;;;0.65;0.43;;;;;;;28.16;32.71;100975.50;4979038;28;20049;-69
2023/06/05 10:58:33;;;;;;;1.23;0.80;;;;;;;28.07;33.38;101048.09;4981854;28;20383;-70
2023/06/05 11:01:20;;;;;;;2.10;0.75;;;;;;;28.24;33.21;101012.81;4981482;28;20053;-71
2023/06/05 11:03:59;;;;;;;4.32;0.77;;;;;;;28.96;33.33;101055.84;4985199;28;20117;-70
2023/06/05 11:06:25;;;;;;;0.98;0.52;;;;;;;27.38;33.64;101063.13;4978163;28;20152;-70
2023/06/05 11:09:14;;;;;;;1.35;0.70;;;;;;;27.62;34.70;101060.75;4981860;28;20043;-71
2023/06/05 11:12:00;;;;;;;1.10;0.82;;;;;;;29.10;34.00;101057.66;4976786;28;20070;-70
2023/06/05 11:14:46;;;;;;;0.93;0.70;;;;;;;27.32;33.74;101075.13;4983304;28;20046;-70
2023/06/05 11:17:35;;;;;;;5.93;0.93;;;;;;;26.87;33.77;101025.66;4985222;28;20799;-68
2023/06/05 11:20:09;;;;;;;1.35;0.98;;;;;;;27.63;34.71;101066.06;5001040;28;20787;-70
2023/06/05 11:22:53;;;;;;;1.70;1.15;;;;;;;26.84;34.70;101085.09;4994297;28;20049;-70
2023/06/05 11:25:45;;;;;;;0.90;0.50;;;;;;;27.34;36.51;101052.50;4984938;28;20057;-81
2023/06/05 11:28:11;;;;;;;2.75;0.98;;;;;;;26.87;34.49;100966.41;4983332;28;20046;-77